TCA7766 SVBM-SVMI
Flight info
| Callsign | TCA7766 |
|---|---|
| Flight time | 0h 30m |
| Altitude | 21000 |
| Route | ATEXA1 KOLEG W5 PBL ALDAK1 |
| Aircraft | B738/M-SDE2E3FGHIRWXY/LB1 |
Departure
| Time | 2026-04-28 22:48 |
|---|---|
| Airport | Jacinto Lara International Airport (SVBM) |
Arrival
| Time | 2026-04-28 23:19 |
|---|---|
| Airport | Maiquetía Simón Bolívar International Airport (SVMI) |
| Time | Latitude | Longitude | Altitude | Speed | Heading |
|---|---|---|---|---|---|
| 2026-04-28 22:25 | 10.04532 | -69.35957 | 2028 ft | 0 kts | 350° |
| 2026-04-28 22:41 | 10.04530 | -69.35957 | 2023 ft | 2 kts | 350° |
| 2026-04-28 22:41 | 10.04504 | -69.35953 | 2029 ft | 4 kts | 353° |
| 2026-04-28 22:41 | 10.04477 | -69.35949 | 2030 ft | 4 kts | 352° |
| 2026-04-28 22:41 | 10.04451 | -69.35944 | 2030 ft | 4 kts | 344° |
| 2026-04-28 22:42 | 10.04425 | -69.35935 | 2028 ft | 4 kts | 333° |
| 2026-04-28 22:42 | 10.04408 | -69.35925 | 2030 ft | 1 kts | 330° |
| 2026-04-28 22:42 | 10.04406 | -69.35924 | 2030 ft | 2 kts | 330° |
| 2026-04-28 22:44 | 10.04419 | -69.35960 | 2033 ft | 10 kts | 272° |
| 2026-04-28 22:44 | 10.04417 | -69.35981 | 2035 ft | 0 kts | 263° |
| 2026-04-28 22:44 | 10.04417 | -69.35983 | 2035 ft | 1 kts | 263° |
| 2026-04-28 22:45 | 10.04404 | -69.36066 | 2037 ft | 17 kts | 261° |
| 2026-04-28 22:45 | 10.04382 | -69.36203 | 2033 ft | 21 kts | 261° |
| 2026-04-28 22:45 | 10.04358 | -69.36344 | 2038 ft | 20 kts | 260° |
| 2026-04-28 22:45 | 10.04336 | -69.36480 | 2036 ft | 19 kts | 260° |
| 2026-04-28 22:46 | 10.04313 | -69.36613 | 2039 ft | 19 kts | 260° |
| 2026-04-28 22:46 | 10.04294 | -69.36740 | 2038 ft | 18 kts | 262° |
| 2026-04-28 22:46 | 10.04277 | -69.36864 | 2042 ft | 17 kts | 262° |
| 2026-04-28 22:46 | 10.04262 | -69.36985 | 2041 ft | 17 kts | 261° |
| 2026-04-28 22:47 | 10.04237 | -69.37087 | 2044 ft | 13 kts | 236° |
| 2026-04-28 22:47 | 10.04158 | -69.37128 | 2044 ft | 13 kts | 185° |
| 2026-04-28 22:47 | 10.04084 | -69.37122 | 2043 ft | 8 kts | 172° |
| 2026-04-28 22:47 | 10.04061 | -69.37092 | 2042 ft | 6 kts | 82° |
| 2026-04-28 22:48 | 10.04103 | -69.36857 | 2045 ft | 77 kts | 80° |
| 2026-04-28 22:48 | 10.04229 | -69.36039 | 2034 ft | 155 kts | 80° |
| 2026-04-28 22:48 | 10.04452 | -69.34863 | 2758 ft | 167 kts | 77° |
| 2026-04-28 22:48 | 10.04691 | -69.33695 | 3805 ft | 169 kts | 84° |
| 2026-04-28 22:49 | 10.04865 | -69.32451 | 4559 ft | 192 kts | 84° |
| 2026-04-28 22:49 | 10.05005 | -69.31010 | 4814 ft | 219 kts | 91° |
| 2026-04-28 22:49 | 10.05012 | -69.29370 | 5037 ft | 246 kts | 92° |
| 2026-04-28 22:49 | 10.04996 | -69.27590 | 5547 ft | 262 kts | 92° |
| 2026-04-28 22:50 | 10.04982 | -69.25730 | 6444 ft | 264 kts | 92° |
| 2026-04-28 22:50 | 10.04975 | -69.23853 | 7283 ft | 268 kts | 92° |
| 2026-04-28 22:50 | 10.04972 | -69.21945 | 8082 ft | 272 kts | 91° |
| 2026-04-28 22:50 | 10.04972 | -69.20008 | 8908 ft | 276 kts | 91° |
| 2026-04-28 22:51 | 10.04975 | -69.18042 | 9719 ft | 281 kts | 91° |
| 2026-04-28 22:51 | 10.04979 | -69.16035 | 10359 ft | 291 kts | 91° |
| 2026-04-28 22:51 | 10.04983 | -69.13890 | 10555 ft | 316 kts | 91° |
| 2026-04-28 22:51 | 10.04989 | -69.11610 | 11042 ft | 328 kts | 91° |
| 2026-04-28 22:52 | 10.04995 | -69.09280 | 11739 ft | 332 kts | 90° |
| 2026-04-28 22:52 | 10.05324 | -69.06953 | 12427 ft | 338 kts | 72° |
| 2026-04-28 22:52 | 10.06221 | -69.04736 | 13170 ft | 342 kts | 68° |
| 2026-04-28 22:52 | 10.07200 | -69.02517 | 13840 ft | 347 kts | 67° |
| 2026-04-28 22:53 | 10.08205 | -69.00276 | 14442 ft | 351 kts | 67° |
| 2026-04-28 22:53 | 10.09221 | -68.98006 | 15043 ft | 355 kts | 67° |
| 2026-04-28 22:53 | 10.10227 | -68.95742 | 15629 ft | 359 kts | 67° |
| 2026-04-28 22:53 | 10.11255 | -68.93415 | 16228 ft | 363 kts | 67° |
| 2026-04-28 22:54 | 10.12287 | -68.91064 | 16822 ft | 367 kts | 67° |
| 2026-04-28 22:54 | 10.13328 | -68.88683 | 17400 ft | 371 kts | 67° |
| 2026-04-28 22:54 | 10.14379 | -68.86275 | 17975 ft | 375 kts | 67° |
| 2026-04-28 22:54 | 10.15438 | -68.83845 | 18533 ft | 377 kts | 67° |
| 2026-04-28 22:55 | 10.16495 | -68.81417 | 19207 ft | 374 kts | 67° |
| 2026-04-28 22:55 | 10.17543 | -68.79008 | 19899 ft | 372 kts | 67° |
| 2026-04-28 22:55 | 10.18588 | -68.76607 | 20529 ft | 371 kts | 67° |
| 2026-04-28 22:55 | 10.19620 | -68.74231 | 20892 ft | 372 kts | 67° |
| 2026-04-28 22:56 | 10.20662 | -68.71834 | 20916 ft | 371 kts | 67° |
| 2026-04-28 22:56 | 10.21705 | -68.69433 | 20944 ft | 373 kts | 67° |
| 2026-04-28 22:56 | 10.22752 | -68.67023 | 20960 ft | 373 kts | 67° |
| 2026-04-28 22:56 | 10.23800 | -68.64611 | 20948 ft | 373 kts | 67° |
| 2026-04-28 22:57 | 10.24847 | -68.62200 | 20953 ft | 373 kts | 67° |
| 2026-04-28 22:57 | 10.25895 | -68.59785 | 20946 ft | 374 kts | 67° |
| 2026-04-28 22:57 | 10.26943 | -68.57370 | 20946 ft | 374 kts | 68° |
| 2026-04-28 22:57 | 10.27990 | -68.54958 | 20953 ft | 374 kts | 67° |
| 2026-04-28 22:58 | 10.29041 | -68.52534 | 20943 ft | 374 kts | 67° |
| 2026-04-28 22:58 | 10.30089 | -68.50119 | 20943 ft | 373 kts | 67° |
| 2026-04-28 22:58 | 10.31113 | -68.47760 | 20929 ft | 365 kts | 67° |
| 2026-04-28 22:58 | 10.32122 | -68.45433 | 20929 ft | 356 kts | 67° |
| 2026-04-28 22:59 | 10.33115 | -68.43143 | 20935 ft | 352 kts | 67° |
| 2026-04-28 22:59 | 10.34097 | -68.40875 | 20938 ft | 351 kts | 67° |
| 2026-04-28 22:59 | 10.35082 | -68.38601 | 20734 ft | 353 kts | 67° |
| 2026-04-28 22:59 | 10.36063 | -68.36336 | 20511 ft | 349 kts | 67° |
| 2026-04-28 23:00 | 10.37043 | -68.34072 | 20167 ft | 349 kts | 67° |
| 2026-04-28 23:00 | 10.38017 | -68.31821 | 19830 ft | 347 kts | 68° |
| 2026-04-28 23:00 | 10.38987 | -68.29582 | 19487 ft | 345 kts | 67° |
| 2026-04-28 23:00 | 10.39952 | -68.27350 | 19152 ft | 344 kts | 68° |
| 2026-04-28 23:01 | 10.40914 | -68.25128 | 18795 ft | 344 kts | 68° |
| 2026-04-28 23:01 | 10.41877 | -68.22901 | 18441 ft | 343 kts | 67° |
| 2026-04-28 23:01 | 10.42838 | -68.20676 | 18057 ft | 343 kts | 68° |
| 2026-04-28 23:01 | 10.43783 | -68.18491 | 17695 ft | 341 kts | 68° |
| 2026-04-28 23:02 | 10.44737 | -68.16283 | 17319 ft | 339 kts | 68° |
| 2026-04-28 23:02 | 10.45684 | -68.14093 | 16966 ft | 337 kts | 68° |
| 2026-04-28 23:02 | 10.46626 | -68.11912 | 16624 ft | 336 kts | 68° |
| 2026-04-28 23:02 | 10.47562 | -68.09746 | 16267 ft | 334 kts | 68° |
| 2026-04-28 23:03 | 10.48476 | -68.07588 | 15984 ft | 330 kts | 71° |
| 2026-04-28 23:03 | 10.49147 | -68.05370 | 15649 ft | 327 kts | 77° |
| 2026-04-28 23:03 | 10.49668 | -68.03127 | 15321 ft | 325 kts | 78° |
| 2026-04-28 23:03 | 10.50149 | -68.00915 | 14995 ft | 324 kts | 79° |
| 2026-04-28 23:04 | 10.50635 | -67.98690 | 14667 ft | 322 kts | 78° |
| 2026-04-28 23:04 | 10.51638 | -67.94264 | 14010 ft | 320 kts | 78° |
| 2026-04-28 23:04 | 10.52148 | -67.92072 | 13674 ft | 318 kts | 78° |
| 2026-04-28 23:05 | 10.52661 | -67.89884 | 13305 ft | 317 kts | 78° |
| 2026-04-28 23:05 | 10.53173 | -67.87709 | 12946 ft | 315 kts | 78° |
| 2026-04-28 23:05 | 10.53685 | -67.85546 | 12611 ft | 313 kts | 78° |
| 2026-04-28 23:05 | 10.54192 | -67.83402 | 12265 ft | 311 kts | 78° |
| 2026-04-28 23:06 | 10.54697 | -67.81269 | 11961 ft | 309 kts | 78° |
| 2026-04-28 23:06 | 10.55191 | -67.79182 | 11645 ft | 307 kts | 78° |
| 2026-04-28 23:06 | 10.55688 | -67.77081 | 11319 ft | 305 kts | 78° |
| 2026-04-28 23:06 | 10.56183 | -67.74987 | 10994 ft | 303 kts | 78° |
| 2026-04-28 23:07 | 10.56675 | -67.72907 | 10663 ft | 302 kts | 78° |
| 2026-04-28 23:07 | 10.57166 | -67.70831 | 10332 ft | 301 kts | 78° |
| 2026-04-28 23:07 | 10.57649 | -67.68787 | 10164 ft | 294 kts | 78° |
| 2026-04-28 23:07 | 10.58117 | -67.66790 | 10009 ft | 286 kts | 79° |
| 2026-04-28 23:08 | 10.58348 | -67.64841 | 9951 ft | 275 kts | 88° |
| 2026-04-28 23:08 | 10.58419 | -67.62876 | 9458 ft | 280 kts | 89° |
| 2026-04-28 23:08 | 10.58456 | -67.60887 | 9081 ft | 281 kts | 89° |
| 2026-04-28 23:08 | 10.58493 | -67.58906 | 8774 ft | 280 kts | 89° |
| 2026-04-28 23:09 | 10.58539 | -67.56931 | 8462 ft | 279 kts | 89° |
| 2026-04-28 23:09 | 10.58593 | -67.54959 | 8152 ft | 278 kts | 89° |
| 2026-04-28 23:09 | 10.58650 | -67.53019 | 7849 ft | 277 kts | 89° |
| 2026-04-28 23:09 | 10.58711 | -67.51065 | 7543 ft | 276 kts | 89° |
| 2026-04-28 23:10 | 10.58775 | -67.49116 | 7240 ft | 275 kts | 89° |
| 2026-04-28 23:10 | 10.58840 | -67.47172 | 6941 ft | 275 kts | 89° |
| 2026-04-28 23:10 | 10.58905 | -67.45227 | 6638 ft | 275 kts | 89° |
| 2026-04-28 23:10 | 10.58971 | -67.43287 | 6330 ft | 275 kts | 89° |
| 2026-04-28 23:11 | 10.59036 | -67.41343 | 6005 ft | 275 kts | 89° |
| 2026-04-28 23:11 | 10.59101 | -67.39428 | 5702 ft | 274 kts | 89° |
| 2026-04-28 23:11 | 10.59167 | -67.37498 | 5387 ft | 273 kts | 88° |
| 2026-04-28 23:11 | 10.59232 | -67.35573 | 5090 ft | 272 kts | 88° |
| 2026-04-28 23:12 | 10.59297 | -67.33652 | 4785 ft | 271 kts | 88° |
| 2026-04-28 23:12 | 10.59362 | -67.31734 | 4476 ft | 271 kts | 88° |
| 2026-04-28 23:12 | 10.59427 | -67.29827 | 4167 ft | 270 kts | 88° |
| 2026-04-28 23:12 | 10.59490 | -67.27943 | 4049 ft | 261 kts | 88° |
| 2026-04-28 23:13 | 10.59551 | -67.26129 | 3997 ft | 251 kts | 88° |
| 2026-04-28 23:13 | 10.59609 | -67.24424 | 3986 ft | 239 kts | 88° |
| 2026-04-28 23:13 | 10.59664 | -67.22781 | 3995 ft | 224 kts | 88° |
| 2026-04-28 23:13 | 10.59714 | -67.21270 | 3974 ft | 202 kts | 88° |
| 2026-04-28 23:14 | 10.59757 | -67.19911 | 3809 ft | 186 kts | 88° |
| 2026-04-28 23:14 | 10.59791 | -67.18636 | 3601 ft | 174 kts | 89° |
| 2026-04-28 23:14 | 10.59821 | -67.17461 | 3402 ft | 159 kts | 89° |
| 2026-04-28 23:14 | 10.59850 | -67.16367 | 3184 ft | 151 kts | 88° |
| 2026-04-28 23:15 | 10.59877 | -67.15306 | 2988 ft | 149 kts | 88° |
| 2026-04-28 23:15 | 10.59905 | -67.14256 | 2784 ft | 148 kts | 89° |
| 2026-04-28 23:15 | 10.59932 | -67.13215 | 2591 ft | 148 kts | 89° |
| 2026-04-28 23:15 | 10.59959 | -67.12180 | 2400 ft | 148 kts | 89° |
| 2026-04-28 23:16 | 10.59986 | -67.11132 | 2203 ft | 148 kts | 89° |
| 2026-04-28 23:16 | 10.60013 | -67.10083 | 2009 ft | 148 kts | 88° |
| 2026-04-28 23:16 | 10.60041 | -67.09030 | 1803 ft | 149 kts | 89° |
| 2026-04-28 23:16 | 10.60069 | -67.07974 | 1599 ft | 150 kts | 88° |
| 2026-04-28 23:17 | 10.60102 | -67.06922 | 1389 ft | 148 kts | 85° |
| 2026-04-28 23:17 | 10.60115 | -67.05885 | 1171 ft | 145 kts | 91° |
| 2026-04-28 23:17 | 10.60110 | -67.04867 | 965 ft | 144 kts | 88° |
| 2026-04-28 23:17 | 10.60153 | -67.03852 | 724 ft | 145 kts | 86° |
| 2026-04-28 23:18 | 10.60188 | -67.02843 | 587 ft | 140 kts | 89° |
| 2026-04-28 23:18 | 10.60201 | -67.01857 | 380 ft | 139 kts | 90° |
| 2026-04-28 23:18 | 10.60215 | -67.00878 | 232 ft | 137 kts | 84° |
| 2026-04-28 23:18 | 10.60252 | -67.00006 | 224 ft | 104 kts | 88° |
| 2026-04-28 23:19 | 10.60262 | -66.99709 | 208 ft | 13 kts | 97° |
| 2026-04-28 23:19 | 10.60187 | -66.99669 | 207 ft | 13 kts | 187° |
| 2026-04-28 23:19 | 10.60139 | -66.99736 | 211 ft | 11 kts | 266° |
| 2026-04-28 23:19 | 10.60137 | -66.99815 | 217 ft | 11 kts | 268° |
| 2026-04-28 23:20 | 10.60126 | -66.99891 | 217 ft | 11 kts | 246° |
| 2026-04-28 23:20 | 10.60060 | -66.99914 | 221 ft | 11 kts | 181° |
| 2026-04-28 23:20 | 10.59988 | -66.99913 | 222 ft | 10 kts | 178° |
| 2026-04-28 23:20 | 10.59920 | -66.99921 | 221 ft | 10 kts | 194° |
| 2026-04-28 23:21 | 10.59862 | -66.99929 | 219 ft | 7 kts | 180° |
| 2026-04-28 23:21 | 10.59848 | -66.99929 | 219 ft | 0 kts | 178° |
| 2026-04-28 23:21 | 10.59842 | -66.99928 | 219 ft | 1 kts | 178° |
| 2026-04-28 23:21 | 10.59838 | -66.99928 | 219 ft | 0 kts | 178° |
| 2026-04-28 23:22 | 10.59837 | -66.99928 | 219 ft | 0 kts | 178° |